TimeEST,TemperatureF,Dew PointF,Humidity,Sea Level PressureIn,VisibilityMPH,Wind Direction,Wind SpeedMPH,Gust SpeedMPH,PrecipitationIn,Events,Conditions,WindDirDegrees,DateUTC
12:53 AM,66.9,60.1,79,30.12,10.0,SSW,6.9,-,N/A,,Overcast,200,2013-01-15 05:53:00
1:53 AM,66.9,60.1,79,30.12,10.0,SSW,4.6,-,N/A,,Overcast,210,2013-01-15 06:53:00
2:53 AM,64.9,60.1,84,30.12,10.0,Calm,Calm,-,0.00,,Overcast,0,2013-01-15 07:53:00
3:53 AM,64.0,60.1,87,30.12,10.0,Calm,Calm,-,N/A,,Overcast,0,2013-01-15 08:53:00
4:53 AM,57.9,57.0,97,30.10,10.0,NE,11.5,-,0.00,,Overcast,40,2013-01-15 09:53:00
5:19 AM,57.2,55.4,94,30.09,10.0,NE,6.9,-,N/A,,Overcast,50,2013-01-15 10:19:00
5:29 AM,57.2,55.4,94,30.08,10.0,ENE,4.6,-,N/A,,Overcast,70,2013-01-15 10:29:00
5:53 AM,55.9,55.0,97,30.10,10.0,East,4.6,-,N/A,,Overcast,90,2013-01-15 10:53:00
7:53 AM,52.0,51.1,97,30.16,7.0,NE,9.2,-,N/A,,Overcast,40,2013-01-15 12:53:00
8:09 AM,51.8,50.0,94,30.14,5.0,NE,8.1,-,N/A,,Overcast,40,2013-01-15 13:09:00
8:40 AM,51.8,50.0,94,30.15,1.8,NE,9.2,-,N/A,,Overcast,50,2013-01-15 13:40:00
8:51 AM,51.8,50.0,94,30.16,2.5,ENE,6.9,-,N/A,,Overcast,60,2013-01-15 13:51:00
8:53 AM,51.1,50.0,96,30.19,2.5,NE,8.1,-,N/A,,Overcast,50,2013-01-15 13:53:00
9:24 AM,50.0,50.0,100,30.18,1.5,NE,16.1,79.4,N/A,,Overcast,50,2013-01-15 14:24:00
9:53 AM,50.0,48.9,96,30.19,0.8,NE,9.2,-,N/A,,Overcast,40,2013-01-15 14:53:00
10:14 AM,50.0,48.2,94,30.18,1.2,NNE,11.5,-,N/A,,Overcast,30,2013-01-15 15:14:00
10:53 AM,50.0,48.9,96,30.19,1.0,NE,9.2,-,N/A,,Overcast,40,2013-01-15 15:53:00
11:44 AM,51.8,48.2,88,30.14,3.0,NE,6.9,-,N/A,,Overcast,50,2013-01-15 16:44:00
11:53 AM,52.0,48.9,89,30.17,6.0,ENE,8.1,-,N/A,,Overcast,70,2013-01-15 16:53:00
12:11 PM,51.8,48.2,88,30.15,6.0,NE,9.2,-,N/A,,Overcast,40,2013-01-15 17:11:00
12:53 PM,51.1,48.9,92,30.15,5.0,NE,9.2,-,N/A,,Overcast,40,2013-01-15 17:53:00
1:53 PM,52.0,48.9,89,30.12,4.0,NNE,10.4,-,N/A,,Overcast,30,2013-01-15 18:53:00
2:53 PM,51.1,48.9,92,30.12,3.0,NE,10.4,-,N/A,,Overcast,40,2013-01-15 19:53:00
3:14 PM,50.0,48.2,94,30.09,1.8,NE,10.4,-,N/A,,Overcast,40,2013-01-15 20:14:00
3:53 PM,50.0,48.9,96,30.12,1.0,ENE,8.1,-,N/A,,Overcast,60,2013-01-15 20:53:00
4:39 PM,50.0,48.2,94,30.10,0.8,ENE,9.2,-,N/A,,Overcast,60,2013-01-15 21:39:00
4:53 PM,50.0,48.9,96,30.13,0.8,NE,6.9,-,N/A,,Overcast,50,2013-01-15 21:53:00
5:17 PM,48.2,48.2,100,30.10,1.0,NE,8.1,-,N/A,,Overcast,40,2013-01-15 22:17:00
5:28 PM,48.2,48.2,100,30.10,0.8,NNE,9.2,-,N/A,,Overcast,30,2013-01-15 22:28:00
5:35 PM,48.2,48.2,100,30.11,1.2,NNE,11.5,-,N/A,,Overcast,30,2013-01-15 22:35:00
5:53 PM,48.9,48.0,97,30.14,1.0,NE,9.2,-,N/A,,Overcast,40,2013-01-15 22:53:00
6:16 PM,48.2,48.2,100,30.11,0.8,NE,9.2,-,N/A,,Mist,50,2013-01-15 23:16:00
6:53 PM,48.0,48.0,100,30.14,0.8,ENE,6.9,-,N/A,,Mist,60,2013-01-15 23:53:00
7:31 PM,48.2,48.2,100,30.11,0.5,NE,6.9,-,N/A,Fog,Fog,50,2013-01-16 00:31:00
7:53 PM,48.0,48.0,100,30.14,0.5,NNE,8.1,-,N/A,Fog,Fog,30,2013-01-16 00:53:00
8:53 PM,48.0,46.9,96,30.12,0.2,ENE,4.6,-,N/A,Fog,Fog,70,2013-01-16 01:53:00
9:53 PM,48.0,46.9,96,30.09,0.5,East,6.9,-,N/A,Fog,Fog,80,2013-01-16 02:53:00
10:53 PM,46.9,46.0,97,30.10,0.5,NNE,5.8,-,N/A,Fog,Fog,30,2013-01-16 03:53:00
11:53 PM,46.9,46.0,97,30.09,0.5,North,4.6,-,N/A,Fog,Fog,10,2013-01-16 04:53:00